Terminal Aerodrome Forecast
Issued by NWS Twin Cities, MN

Home | Current Version | Previous Version | Graphics & Text | Print | Product List | Glossary On
Versions: 1 2 3 4 5 6 7 8 9 10 11 12 13 14
000
FTUS43 KMPX 221700
TAFSTC
TAF
KSTC 221740Z 2218/2318 17018G26KT P6SM SCT080 BKN150
     FM230000 16011KT P6SM SCT030 BKN080
     FM230300 17010KT 5SM -SHRA BR BKN020 OVC040
     FM230600 20006KT 6SM BR SCT015 BKN050
     FM231000 22004KT 2SM BR FEW010
     FM231400 24006KT P6SM SKC=

USA.gov is the U.S. government's official web portal to all federal, state and local government web resources and services.